Aérodrome :
LOGIN :

S'inscrire | Disclaimer

   EN    FR    IT 

 










Légende :    VFR   VFR Marginal   IFR   IFR Intensif   IFR Très Intensif
Visi : 
Plafond : 
>= 8 km
>= 3000ft
5 à 8 km
1000 à 3000 ft
1500m à 5 km
500 à 1000 ft
800 à 1500m
200 à 500 ft
< 800m
< 200 ft
Symboles :   Orages  Brouillard  Fortes neiges  Fortes précipitations  Vent > 20 kt
SIGMETs :   Divers  Orages  Givrage  Turbulence  Onde Orograph.  Cendres Volcan.






- Altitude de l'aérodrome : 26 ft
- Code IATA : GLA


EGPF - Glasgow

DERNIER METAR :
  • 050050Z AUTO 18009KT 9999 NCD 09/03 Q1012

METARs EXPIRÉS :
  • 050020Z AUTO 19011KT 9999 NCD 09/04 Q1012
  • 042350Z AUTO 19011KT 9999 NCD 09/04 Q1012
  • 042320Z AUTO 17007KT 9999 NCD 08/05 Q1013
  • 042250Z AUTO 12005KT 9999 NCD 09/05 Q1013
  • 042220Z AUTO 14004KT 090V190 9999 NCD 09/05 Q1013

TAF TAF EGPF
Valide du 05 à 00h jusqu'au 06 à 00h UTC


042258Z 0500/0524 16007KT 9999 FEW030
PROB30
TEMPO 0500/0512 17015G25KT
BECMG 0512/0515 16015G25KT
PROB40
TEMPO 0516/0524 18022G35KT 6000 RA SHRA BKN012
ATIS : +44 141 887 7449



MET'MAP, la Météo Aéronautique d'un coup d'oeil ! - Copyright ORBIFLY Décembre 2007 - Disclaimer

ORBIFLY MET'MAP TEAM :

Programmation & Développement : Alexandra Zaïnal
Sur une idée originale de : Baudouin d'Aumeries
Assistance à la programmation : Marc-Olivier Méhu
Soutien technique & logistique : Manuel Goepfert

Contact : metmap@orbifly.com




SOURCES & CREDITS :

   NOAA